Time;durP1;ratioP1;P1;durP2;ratioP2;P2;SDS_P1;SDS_P2;PMS_P1;PMS_P2;Temp;Humidity;BMP_temperature;BMP_pressure;BME280_temperature;BME280_humidity;BME280_pressure;Samples;Min_cycle;Max_cycle;Signal;HPM_P1;HPM_P2
2022/07/27 00:00:25;;;;;;;4.13;1.08;;;10.40;99.90;;;;;;5006764;28;20077;-35
2022/07/27 00:02:51;;;;;;;2.58;0.60;;;10.40;99.90;;;;;;5006374;28;20054;-35
2022/07/27 00:05:19;;;;;;;6.32;0.80;;;10.30;99.90;;;;;;5006914;28;20054;-36
2022/07/27 00:07:45;;;;;;;5.30;0.60;;;11.00;99.90;;;;;;5010330;28;20128;-36
2022/07/27 00:10:11;;;;;;;4.82;0.68;;;10.40;99.90;;;;;;5010307;28;20065;-36
2022/07/27 00:12:36;;;;;;;5.72;0.70;;;10.40;99.90;;;;;;5010961;28;20045;-36
2022/07/27 00:15:03;;;;;;;2.65;0.63;;;10.40;99.90;;;;;;5010566;28;20120;-36
2022/07/27 00:17:29;;;;;;;3.60;0.95;;;10.50;99.90;;;;;;5010592;28;20503;-35
2022/07/27 00:19:55;;;;;;;4.28;0.80;;;10.40;99.90;;;;;;5010697;28;20037;-35
2022/07/27 00:22:21;;;;;;;7.47;1.23;;;10.70;99.90;;;;;;5010345;28;20046;-36
2022/07/27 00:24:47;;;;;;;5.25;1.02;;;10.80;99.90;;;;;;5009967;28;20049;-36
2022/07/27 00:27:13;;;;;;;3.53;0.82;;;10.80;99.90;;;;;;5009203;28;20103;-36
2022/07/27 00:29:39;;;;;;;4.75;1.40;;;10.90;99.90;;;;;;5009369;28;20041;-35
2022/07/27 00:32:06;;;;;;;3.88;1.00;;;11.00;99.90;;;;;;5009265;28;20535;-36
2022/07/27 00:34:32;;;;;;;4.88;0.70;;;11.10;99.90;;;;;;5009441;28;20046;-36
2022/07/27 00:36:57;;;;;;;4.03;0.70;;;11.10;99.90;;;;;;5009160;28;20046;-36
2022/07/27 00:39:23;;;;;;;4.15;0.80;;;11.00;99.90;;;;;;5009086;28;20537;-36
2022/07/27 00:41:49;;;;;;;2.95;0.80;;;11.10;99.90;;;;;;5008631;28;20042;-36
2022/07/27 00:44:27;;;;;;;2.55;0.68;;;11.90;99.90;;;;;;5008539;28;20432;-36
2022/07/27 00:46:54;;;;;;;3.95;1.05;;;11.20;99.90;;;;;;5008522;28;20666;-35
2022/07/27 00:49:19;;;;;;;4.70;0.70;;;11.70;99.90;;;;;;5010109;28;20045;-36
2022/07/27 00:51:46;;;;;;;6.25;1.13;;;10.90;99.90;;;;;;5009829;28;20033;-36
2022/07/27 00:54:11;;;;;;;4.82;0.80;;;11.30;99.90;;;;;;5009567;28;20393;-36
2022/07/27 00:56:37;;;;;;;4.50;0.75;;;12.00;99.90;;;;;;5009847;28;20053;-36
2022/07/27 00:59:06;;;;;;;4.05;0.70;;;11.40;99.90;;;;;;5009205;28;20184;-36
2022/07/27 01:01:32;;;;;;;2.40;1.05;;;12.10;99.90;;;;;;5009650;28;20372;-36
2022/07/27 01:03:58;;;;;;;1.75;0.30;;;11.40;99.90;;;;;;5009754;28;20522;-36
2022/07/27 01:06:24;;;;;;;3.17;0.68;;;11.40;99.90;;;;;;5009638;28;20077;-36
2022/07/27 01:08:50;;;;;;;3.03;0.47;;;11.40;99.90;;;;;;5009336;28;20056;-36
2022/07/27 01:11:16;;;;;;;2.60;0.55;;;12.30;99.90;;;;;;5008856;28;20045;-36
2022/07/27 01:13:42;;;;;;;1.95;0.40;;;11.30;99.90;;;;;;5009634;28;20444;-36
2022/07/27 01:16:08;;;;;;;2.08;0.22;;;11.30;99.90;;;;;;5009152;28;20048;-36
2022/07/27 01:18:36;;;;;;;2.53;0.40;;;11.30;99.90;;;;;;5009123;28;20038;-36
2022/07/27 01:21:04;;;;;;;3.80;0.65;;;11.20;99.90;;;;;;5008953;28;20037;-36
2022/07/27 01:23:31;;;;;;;3.05;0.50;;;11.40;99.90;;;;;;5009514;28;20054;-36
2022/07/27 01:25:57;;;;;;;2.83;0.38;;;11.30;99.90;;;;;;5009768;28;20096;-36
2022/07/27 01:28:23;;;;;;;3.13;0.30;;;11.40;99.90;;;;;;5009280;28;20373;-36
2022/07/27 01:30:49;;;;;;;3.97;0.85;;;11.40;99.90;;;;;;5009254;28;20100;-35
2022/07/27 01:33:15;;;;;;;2.35;0.40;;;11.40;99.90;;;;;;5009202;28;20046;-35
2022/07/27 01:35:40;;;;;;;1.95;0.60;;;11.30;99.90;;;;;;5008993;28;20037;-36
2022/07/27 01:38:09;;;;;;;2.50;0.30;;;11.90;99.90;;;;;;5008659;28;20565;-36
2022/07/27 01:40:38;;;;;;;2.60;0.30;;;11.10;99.90;;;;;;5008789;28;20123;-36
2022/07/27 01:43:04;;;;;;;2.50;0.32;;;11.10;99.90;;;;;;5008987;28;20050;-36
2022/07/27 01:45:30;;;;;;;2.20;0.43;;;11.10;99.90;;;;;;5009008;28;20530;-36
2022/07/27 01:47:56;;;;;;;3.65;0.60;;;11.10;99.90;;;;;;5009462;28;20037;-36
2022/07/27 01:50:22;;;;;;;5.32;0.45;;;11.00;99.90;;;;;;5008871;28;20120;-36
2022/07/27 01:52:47;;;;;;;3.63;0.50;;;11.10;99.90;;;;;;5009091;28;20455;-36
2022/07/27 01:55:13;;;;;;;1.73;0.50;;;11.00;99.90;;;;;;5008489;28;20038;-36
2022/07/27 01:57:39;;;;;;;4.45;0.38;;;11.10;99.90;;;;;;5008688;28;20100;-36
2022/07/27 02:00:09;;;;;;;2.75;0.40;;;11.00;99.90;;;;;;5008577;28;20045;-36
2022/07/27 02:02:35;;;;;;;2.47;0.50;;;10.90;99.90;;;;;;5008218;28;20038;-35
2022/07/27 02:05:01;;;;;;;3.72;0.50;;;9.00;99.90;;;;;;5008554;28;20034;-36
2022/07/27 02:07:26;;;;;;;5.25;1.48;;;10.60;99.90;;;;;;5008542;28;20371;-35
2022/07/27 02:09:52;;;;;;;3.50;0.70;;;10.50;99.90;;;;;;5008256;28;20074;-35
2022/07/27 02:12:36;;;;;;;6.32;1.02;;;10.20;99.90;;;;;;5008788;28;20104;-35
2022/07/27 02:15:07;;;;;;;8.05;0.60;;;10.90;99.90;;;;;;5008462;28;20041;-37
2022/07/27 02:17:34;;;;;;;4.93;1.20;;;10.30;99.90;;;;;;5008314;28;20104;-36
2022/07/27 02:19:59;;;;;;;3.55;1.00;;;10.10;99.90;;;;;;5007112;28;20531;-36
2022/07/27 02:22:25;;;;;;;3.22;0.90;;;10.30;99.90;;;;;;5007989;28;20129;-36
2022/07/27 02:24:51;;;;;;;3.95;0.65;;;9.90;99.90;;;;;;5008049;28;20050;-36
2022/07/27 02:27:17;;;;;;;3.40;0.98;;;9.90;99.90;;;;;;5007861;28;20041;-36
2022/07/27 02:29:42;;;;;;;5.80;1.35;;;9.90;99.90;;;;;;5007389;28;20041;-36
2022/07/27 02:32:08;;;;;;;7.03;1.35;;;10.10;99.90;;;;;;5007406;28;20050;-35
2022/07/27 02:34:34;;;;;;;3.15;0.93;;;9.80;99.90;;;;;;5007754;28;20041;-36
2022/07/27 02:36:59;;;;;;;4.10;1.17;;;9.70;99.90;;;;;;5008130;28;20099;-36
2022/07/27 02:39:25;;;;;;;4.70;1.00;;;10.20;99.90;;;;;;5006198;28;20173;-36
2022/07/27 02:41:50;;;;;;;7.30;1.35;;;9.60;99.90;;;;;;5007388;28;20148;-36
2022/07/27 02:44:17;;;;;;;4.72;1.08;;;9.50;99.90;;;;;;5007117;28;20046;-36
2022/07/27 02:46:43;;;;;;;3.90;1.20;;;9.60;99.90;;;;;;5007791;28;20045;-36
2022/07/27 02:49:09;;;;;;;8.32;2.10;;;10.40;99.90;;;;;;5007583;28;20049;-36
2022/07/27 02:51:35;;;;;;;3.47;0.82;;;10.70;99.90;;;;;;5007516;28;20069;-36
2022/07/27 02:54:01;;;;;;;3.45;1.10;;;10.10;99.90;;;;;;5008094;28;20450;-35
2022/07/27 02:56:27;;;;;;;5.88;1.50;;;9.50;99.90;;;;;;5007756;28;20038;-35
2022/07/27 02:58:53;;;;;;;8.23;1.38;;;9.50;99.90;;;;;;5007912;28;20095;-36
2022/07/27 03:01:19;;;;;;;5.18;1.60;;;9.40;99.90;;;;;;5007616;28;20041;-36
2022/07/27 03:03:45;;;;;;;6.65;0.93;;;9.40;99.90;;;;;;5007710;28;20053;-35
2022/07/27 03:06:11;;;;;;;8.50;1.38;;;10.20;99.90;;;;;;5007616;28;20042;-36
2022/07/27 03:08:36;;;;;;;6.38;1.50;;;9.10;99.90;;;;;;5007306;28;20045;-35
2022/07/27 03:11:02;;;;;;;6.28;1.55;;;9.20;99.90;;;;;;5006399;28;20136;-35
2022/07/27 03:13:28;;;;;;;5.93;2.03;;;9.20;99.90;;;;;;5006988;28;20084;-36
2022/07/27 03:15:55;;;;;;;7.57;1.40;;;9.20;99.90;;;;;;5007373;28;20391;-36
2022/07/27 03:18:21;;;;;;;5.88;1.65;;;8.90;99.90;;;;;;5006583;28;20072;-36
2022/07/27 03:20:46;;;;;;;4.45;1.13;;;9.80;99.90;;;;;;5006954;28;20045;-36
2022/07/27 03:23:12;;;;;;;6.15;1.80;;;9.10;99.90;;;;;;5007128;28;20131;-36
2022/07/27 03:25:38;;;;;;;4.25;1.42;;;9.00;99.90;;;;;;5007502;28;20084;-36
2022/07/27 03:28:04;;;;;;;7.85;1.50;;;9.00;99.90;;;;;;5007748;28;20038;-36
2022/07/27 03:30:31;;;;;;;6.18;1.35;;;9.00;99.90;;;;;;5006876;28;20575;-35
2022/07/27 03:32:56;;;;;;;3.58;1.40;;;9.00;99.90;;;;;;5006907;28;20353;-35
2022/07/27 03:35:22;;;;;;;6.15;1.67;;;9.00;99.90;;;;;;5007324;28;20122;-36
2022/07/27 03:37:48;;;;;;;5.30;1.67;;;9.00;99.90;;;;;;5007250;28;20484;-36
2022/07/27 03:40:13;;;;;;;8.82;2.10;;;9.00;99.90;;;;;;5006427;28;20551;-36
2022/07/27 03:42:39;;;;;;;5.05;1.80;;;9.80;99.90;;;;;;5006999;28;20045;-35
2022/07/27 03:45:05;;;;;;;8.45;2.08;;;9.20;99.90;;;;;;5007570;28;20084;-36
2022/07/27 03:47:31;;;;;;;8.73;1.70;;;9.30;99.90;;;;;;5007523;28;20495;-36
2022/07/27 03:49:57;;;;;;;11.32;2.20;;;10.30;99.90;;;;;;5007231;28;20042;-36
2022/07/27 03:52:22;;;;;;;8.18;1.98;;;9.80;99.90;;;;;;5007073;28;20041;-35
2022/07/27 03:54:48;;;;;;;6.70;1.58;;;9.80;99.90;;;;;;5006897;28;20042;-36
2022/07/27 03:57:14;;;;;;;6.20;1.75;;;9.20;99.90;;;;;;5006898;28;20117;-35
2022/07/27 03:59:40;;;;;;;7.20;1.63;;;10.20;99.90;;;;;;5006951;28;20046;-36
2022/07/27 04:02:05;;;;;;;7.80;1.73;;;9.90;99.90;;;;;;5006687;28;20484;-36
2022/07/27 04:04:31;;;;;;;9.90;2.25;;;10.70;99.90;;;;;;5006685;28;20057;-35
2022/07/27 04:06:57;;;;;;;4.90;1.65;;;10.00;99.90;;;;;;5006668;28;20558;-36
2022/07/27 04:09:23;;;;;;;6.40;1.50;;;10.20;99.90;;;;;;5005864;28;20061;-36
2022/07/27 04:11:49;;;;;;;6.22;1.90;;;10.30;99.90;;;;;;5005851;28;20053;-35
2022/07/27 04:14:15;;;;;;;8.05;1.63;;;10.30;99.90;;;;;;5006470;28;20080;-36
2022/07/27 04:16:41;;;;;;;10.25;1.90;;;10.70;99.90;;;;;;5006523;28;20447;-36
2022/07/27 04:19:06;;;;;;;5.45;1.75;;;10.50;99.90;;;;;;5006549;28;20077;-35
2022/07/27 04:21:35;;;;;;;5.07;1.92;;;11.10;99.90;;;;;;5006168;28;20067;-36
2022/07/27 04:24:01;;;;;;;5.80;1.40;;;10.70;99.90;;;;;;5006813;28;20403;-35
2022/07/27 04:26:27;;;;;;;6.30;2.00;;;11.50;99.90;;;;;;5006566;28;20050;-36
2022/07/27 04:28:53;;;;;;;6.65;1.60;;;10.80;99.90;;;;;;5006535;28;20377;-36
2022/07/27 04:31:18;;;;;;;7.10;1.77;;;10.90;99.90;;;;;;5006168;28;20453;-35
2022/07/27 04:33:44;;;;;;;6.03;1.60;;;11.00;99.90;;;;;;5006236;28;20076;-35
2022/07/27 04:36:10;;;;;;;4.45;1.70;;;11.00;99.90;;;;;;5006387;28;20050;-36
2022/07/27 04:38:36;;;;;;;2.78;1.40;;;11.10;99.90;;;;;;5005864;28;20050;-36
2022/07/27 04:41:01;;;;;;;5.72;1.50;;;11.20;99.90;;;;;;5006141;28;20480;-36
2022/07/27 04:43:27;;;;;;;4.50;2.05;;;11.30;99.90;;;;;;5006083;28;20041;-35
2022/07/27 04:45:53;;;;;;;9.32;1.55;;;11.50;99.90;;;;;;5006545;28;20049;-36
2022/07/27 04:48:18;;;;;;;8.77;1.92;;;11.60;99.90;;;;;;5006486;28;20076;-36
2022/07/27 04:50:46;;;;;;;9.40;1.77;;;12.20;99.90;;;;;;5006114;28;20050;-36
2022/07/27 04:53:13;;;;;;;6.57;1.92;;;11.80;99.90;;;;;;5009535;28;20101;-36
2022/07/27 04:55:44;;;;;;;5.25;1.73;;;11.90;99.90;;;;;;5010012;28;20121;-36
2022/07/27 04:58:10;;;;;;;5.93;1.50;;;12.00;99.90;;;;;;5010596;28;20115;-36
2022/07/27 05:00:36;;;;;;;6.50;1.45;;;12.10;99.90;;;;;;5009798;28;20050;-36
2022/07/27 05:03:02;;;;;;;5.88;2.03;;;12.20;99.90;;;;;;5009933;28;20042;-36
2022/07/27 05:05:28;;;;;;;8.10;1.88;;;12.40;99.90;;;;;;5009832;28;20175;-36
2022/07/27 05:07:54;;;;;;;6.32;1.63;;;13.00;99.90;;;;;;5009523;28;20132;-35
2022/07/27 05:10:20;;;;;;;5.63;1.23;;;12.60;99.90;;;;;;5008568;28;20057;-36
2022/07/27 05:12:45;;;;;;;5.78;1.38;;;12.90;99.90;;;;;;5009494;28;20061;-36
2022/07/27 05:15:11;;;;;;;4.68;1.35;;;13.20;99.90;;;;;;5009578;28;20045;-36
2022/07/27 05:17:37;;;;;;;6.05;1.70;;;13.40;99.90;;;;;;5009387;28;20459;-36
2022/07/27 05:20:04;;;;;;;5.22;1.35;;;13.50;99.90;;;;;;5009248;28;20042;-36
2022/07/27 05:22:29;;;;;;;3.45;1.35;;;13.70;99.90;;;;;;5009218;28;20450;-36
2022/07/27 05:24:55;;;;;;;7.07;1.48;;;14.10;99.90;;;;;;5007679;28;20058;-36
2022/07/27 05:27:20;;;;;;;4.32;1.27;;;14.00;99.90;;;;;;5009264;28;20183;-36
2022/07/27 05:29:46;;;;;;;4.32;1.02;;;14.00;99.90;;;;;;5009320;28;20046;-36
2022/07/27 05:32:12;;;;;;;2.17;1.17;;;14.00;99.90;;;;;;5009071;28;20183;-36
2022/07/27 05:34:37;;;;;;;4.32;1.27;;;14.00;99.90;;;;;;5009192;28;20065;-36
2022/07/27 05:37:03;;;;;;;7.75;1.13;;;14.10;99.90;;;;;;5009650;28;20550;-36
2022/07/27 05:39:29;;;;;;;7.05;0.98;;;14.20;99.90;;;;;;5009436;28;20487;-36
2022/07/27 05:41:54;;;;;;;3.22;0.60;;;14.30;99.90;;;;;;5009322;28;20046;-36
2022/07/27 05:44:20;;;;;;;7.82;1.02;;;14.20;99.90;;;;;;5008431;28;20049;-36
2022/07/27 05:46:46;;;;;;;6.65;1.15;;;14.40;99.90;;;;;;5006918;28;20041;-36
2022/07/27 05:49:12;;;;;;;5.22;0.70;;;14.50;99.90;;;;;;5008611;28;20049;-36
2022/07/27 05:51:37;;;;;;;4.70;0.55;;;14.60;99.90;;;;;;5008742;28;20038;-36
2022/07/27 05:54:03;;;;;;;4.35;0.68;;;14.70;99.90;;;;;;5008681;28;20089;-36
2022/07/27 05:56:29;;;;;;;2.53;0.65;;;14.70;99.90;;;;;;5008343;28;20038;-36
2022/07/27 05:58:55;;;;;;;4.07;0.82;;;14.80;99.90;;;;;;5008656;28;20164;-36
2022/07/27 06:01:21;;;;;;;5.47;0.88;;;14.90;99.90;;;;;;5008550;28;20494;-36
2022/07/27 06:03:46;;;;;;;4.18;0.60;;;15.00;99.90;;;;;;5008092;28;20057;-36
2022/07/27 06:08:57;;;;;;;3.45;0.68;;;15.00;99.90;;;;;;5008696;28;20057;-36
2022/07/27 06:11:22;;;;;;;6.40;1.10;;;15.20;99.90;;;;;;5008072;28;20050;-36
2022/07/27 06:13:49;;;;;;;4.63;1.10;;;15.40;99.90;;;;;;5007572;28;20044;-36
2022/07/27 06:16:15;;;;;;;8.27;1.25;;;15.30;99.90;;;;;;5008271;28;20484;-36
2022/07/27 06:18:41;;;;;;;3.92;0.60;;;15.40;99.90;;;;;;5008339;28;20038;-36
2022/07/27 06:21:06;;;;;;;4.78;1.40;;;15.60;99.90;;;;;;5008172;28;20416;-36
2022/07/27 06:23:32;;;;;;;4.25;0.50;;;15.70;99.90;;;;;;5007903;28;20468;-36
2022/07/27 06:25:58;;;;;;;7.45;1.88;;;15.70;99.90;;;;;;5008042;28;20041;-36
2022/07/27 06:28:23;;;;;;;4.18;0.70;;;15.70;99.90;;;;;;5007998;28;20042;-36
2022/07/27 06:30:49;;;;;;;5.82;0.70;;;15.60;99.90;;;;;;5007745;28;20052;-36
2022/07/27 06:33:15;;;;;;;7.78;0.70;;;15.50;99.90;;;;;;5007971;28;20124;-36
2022/07/27 06:35:41;;;;;;;5.55;0.65;;;15.40;99.90;;;;;;5007686;28;20128;-36
2022/07/27 06:38:07;;;;;;;7.68;1.38;;;15.20;99.90;;;;;;5008435;28;20444;-36
2022/07/27 06:40:34;;;;;;;3.45;0.70;;;15.30;99.90;;;;;;5007366;28;20045;-36
2022/07/27 06:43:00;;;;;;;3.28;0.68;;;14.90;99.90;;;;;;5007212;28;20054;-36
2022/07/27 06:45:26;;;;;;;6.38;0.88;;;14.80;99.90;;;;;;5007436;28;20495;-36
2022/07/27 06:47:51;;;;;;;9.25;1.15;;;14.80;99.90;;;;;;5008093;28;20049;-36
2022/07/27 06:50:19;;;;;;;3.30;0.57;;;14.70;99.90;;;;;;5007743;28;20056;-36
2022/07/27 06:52:45;;;;;;;8.43;1.02;;;14.90;99.90;;;;;;5007594;28;20046;-36
2022/07/27 06:55:12;;;;;;;5.50;1.10;;;14.70;99.90;;;;;;5007851;28;20038;-36
2022/07/27 06:57:37;;;;;;;5.53;0.52;;;14.70;99.90;;;;;;5007392;28;20042;-36
2022/07/27 07:00:05;;;;;;;3.85;0.70;;;14.90;99.90;;;;;;5008002;28;20037;-36
2022/07/27 07:02:31;;;;;;;3.80;0.50;;;14.80;99.90;;;;;;5007759;28;20104;-36
2022/07/27 07:04:57;;;;;;;5.90;1.02;;;15.00;99.90;;;;;;5007589;28;20046;-36
2022/07/27 07:07:23;;;;;;;4.75;1.33;;;15.10;99.90;;;;;;5007709;28;20111;-37
2022/07/27 07:09:49;;;;;;;5.57;0.60;;;15.20;99.90;;;;;;5007051;28;20499;-36
2022/07/27 07:12:17;;;;;;;5.55;0.70;;;15.50;99.90;;;;;;5007183;28;20058;-36
2022/07/27 07:14:43;;;;;;;4.18;0.70;;;15.70;99.90;;;;;;5006752;28;20041;-37
2022/07/27 07:17:09;;;;;;;7.03;0.85;;;15.40;99.90;;;;;;5007085;28;20041;-36
2022/07/27 07:19:34;;;;;;;3.28;0.55;;;15.80;99.90;;;;;;5007487;28;20064;-36
2022/07/27 07:22:00;;;;;;;5.70;0.82;;;16.10;99.90;;;;;;5006990;28;20109;-36
2022/07/27 07:24:27;;;;;;;4.30;0.60;;;16.70;99.90;;;;;;5006979;28;20046;-36
2022/07/27 07:26:52;;;;;;;7.03;0.73;;;17.40;99.90;;;;;;5006683;28;20116;-36
2022/07/27 07:29:18;;;;;;;2.67;0.50;;;18.20;99.90;;;;;;5006509;28;20081;-36
2022/07/27 07:31:44;;;;;;;4.90;0.52;;;19.00;99.90;;;;;;5005714;28;20092;-36
2022/07/27 07:34:09;;;;;;;2.92;0.77;;;20.10;99.90;;;;;;5006688;28;20050;-37
2022/07/27 07:36:35;;;;;;;4.07;0.63;;;21.00;99.90;;;;;;5006611;28;20120;-36
2022/07/27 07:39:01;;;;;;;3.10;0.82;;;21.40;99.90;;;;;;5006636;28;20041;-36
2022/07/27 07:41:27;;;;;;;3.65;0.73;;;21.70;99.90;;;;;;5006166;28;20050;-36
2022/07/27 07:43:53;;;;;;;4.38;0.55;;;22.30;98.40;;;;;;5006235;28;20120;-36
2022/07/27 07:46:18;;;;;;;3.53;0.30;;;23.90;96.20;;;;;;5006931;28;20042;-36
2022/07/27 07:48:44;;;;;;;2.78;0.50;;;24.70;96.50;;;;;;5007094;28;20103;-36
2022/07/27 07:51:11;;;;;;;4.25;0.60;;;26.00;90.90;;;;;;5006909;28;20061;-37
2022/07/27 07:53:36;;;;;;;2.97;0.20;;;27.40;88.60;;;;;;5006602;28;20084;-37
2022/07/27 07:56:02;;;;;;;2.22;0.40;;;29.10;81.70;;;;;;5005919;28;20034;-37
2022/07/27 07:58:28;;;;;;;4.75;0.30;;;30.50;76.00;;;;;;5006548;28;20042;-37
2022/07/27 08:00:54;;;;;;;3.38;0.40;;;31.70;71.40;;;;;;5006514;28;20042;-37
2022/07/27 08:03:20;;;;;;;3.35;0.30;;;32.70;67.60;;;;;;5006894;28;20054;-37
2022/07/27 08:05:46;;;;;;;5.05;0.40;;;33.60;63.30;;;;;;5007008;28;20038;-37
2022/07/27 08:08:12;;;;;;;5.38;0.30;;;34.30;61.20;;;;;;5006719;28;20435;-37
2022/07/27 08:10:38;;;;;;;1.92;0.22;;;35.20;59.40;;;;;;5006510;28;20075;-37
2022/07/27 08:13:04;;;;;;;1.98;0.20;;;35.80;57.20;;;;;;5005783;28;20130;-37
2022/07/27 08:15:29;;;;;;;1.10;0.17;;;36.30;54.60;;;;;;5006870;28;20105;-38
2022/07/27 08:17:55;;;;;;;2.28;0.30;;;36.80;52.40;;;;;;5006783;28;20093;-38
2022/07/27 08:20:23;;;;;;;3.95;0.20;;;37.30;51.50;;;;;;5006933;28;20077;-38
2022/07/27 08:22:48;;;;;;;2.63;0.20;;;37.80;51.30;;;;;;5006658;28;20049;-37
2022/07/27 08:25:14;;;;;;;3.80;0.30;;;38.20;49.90;;;;;;5006845;28;20049;-38
2022/07/27 08:27:40;;;;;;;3.05;0.40;;;38.80;48.90;;;;;;5008302;28;20563;-39
2022/07/27 08:30:06;;;;;;;1.60;0.20;;;38.60;49.50;;;;;;5011020;28;20767;-39
2022/07/27 08:32:32;;;;;;;3.78;0.40;;;37.50;48.50;;;;;;5008963;28;20053;-43
2022/07/27 08:34:58;;;;;;;3.90;0.30;;;35.60;48.20;;;;;;5011961;28;20038;-60
2022/07/27 08:37:23;;;;;;;2.65;0.30;;;34.10;48.90;;;;;;5013321;28;20050;-56
2022/07/27 08:39:49;;;;;;;3.33;0.43;;;32.10;50.00;;;;;;5008216;28;20135;-56
2022/07/27 08:42:16;;;;;;;2.55;0.50;;;30.00;52.60;;;;;;5007650;28;20085;-56
2022/07/27 08:44:43;;;;;;;4.20;0.30;;;28.30;54.30;;;;;;5008901;28;20061;-61
2022/07/27 08:47:10;;;;;;;2.65;0.32;;;26.90;57.80;;;;;;5007114;28;20363;-46
2022/07/27 08:49:40;;;;;;;4.60;0.30;;;25.70;60.10;;;;;;5007308;28;20053;-49
2022/07/27 08:52:07;;;;;;;5.88;0.50;;;24.70;62.30;;;;;;5008308;28;20046;-43
2022/07/27 08:54:33;;;;;;;3.40;0.43;;;23.80;63.50;;;;;;5008729;28;20372;-43
2022/07/27 08:56:59;;;;;;;6.97;0.50;;;23.10;66.00;;;;;;5008535;28;20053;-43
2022/07/27 08:59:24;;;;;;;4.43;0.55;;;22.30;68.40;;;;;;5008810;28;20030;-42
2022/07/27 09:01:50;;;;;;;3.88;0.60;;;21.80;70.90;;;;;;5008939;28;20076;-44
2022/07/27 09:04:16;;;;;;;5.43;0.70;;;21.30;72.60;;;;;;5008128;28;20068;-44
2022/07/27 09:06:44;;;;;;;2.85;0.30;;;20.90;74.80;;;;;;5008468;28;20050;-40
2022/07/27 09:09:11;;;;;;;4.10;0.47;;;20.50;76.90;;;;;;5008319;28;20124;-43
2022/07/27 09:11:37;;;;;;;4.55;0.40;;;20.30;79.10;;;;;;5008467;28;20042;-42
2022/07/27 09:14:07;;;;;;;4.40;0.50;;;20.20;80.60;;;;;;5008014;28;20499;-43
2022/07/27 09:16:34;;;;;;;4.00;0.43;;;20.20;81.70;;;;;;5008241;28;20037;-42
2022/07/27 09:19:05;;;;;;;4.10;0.40;;;20.20;81.80;;;;;;5008163;28;20120;-44
2022/07/27 09:21:33;;;;;;;4.47;0.80;;;20.20;82.30;;;;;;5008617;28;20431;-42
2022/07/27 09:24:28;;;;;;;5.20;1.00;;;20.30;81.80;;;;;;5008432;28;20052;-45
2022/07/27 09:27:01;;;;;;;6.07;1.15;;;20.20;82.70;;;;;;4994966;28;20065;-48
2022/07/27 09:29:33;;;;;;;3.28;0.40;;;20.00;84.10;;;;;;5008012;28;20049;-54
2022/07/27 09:31:59;;;;;;;5.68;0.68;;;20.00;88.10;;;;;;5007975;28;20046;-46
2022/07/27 09:34:32;;;;;;;4.07;0.63;;;20.00;89.50;;;;;;5006915;28;20038;-54
2022/07/27 09:36:58;;;;;;;4.53;0.47;;;20.10;90.50;;;;;;5008004;28;20053;-55
2022/07/27 09:39:26;;;;;;;4.43;0.30;;;20.20;89.90;;;;;;5007436;28;20045;-53
2022/07/27 09:41:55;;;;;;;6.05;0.75;;;20.40;88.10;;;;;;5006390;28;20042;-55
2022/07/27 09:44:41;;;;;;;3.03;0.32;;;21.00;87.30;;;;;;5006636;28;20060;-58
2022/07/27 09:47:29;;;;;;;2.70;0.30;;;21.20;85.90;;;;;;5007710;28;20056;-56
2022/07/27 09:49:57;;;;;;;3.00;0.30;;;22.50;85.80;;;;;;5007725;28;20048;-47
2022/07/27 09:52:29;;;;;;;5.47;0.65;;;23.90;80.70;;;;;;5006965;28;20120;-45
2022/07/27 09:55:02;;;;;;;3.55;0.85;;;25.10;74.10;;;;;;5007463;28;20068;-43
2022/07/27 09:57:28;;;;;;;2.33;0.50;;;25.90;70.00;;;;;;5007034;28;20050;-44
2022/07/27 10:00:12;;;;;;;1.42;0.10;;;26.60;67.30;;;;;;5007729;28;20417;-38
2022/07/27 10:02:39;;;;;;;3.53;0.40;;;27.10;63.90;;;;;;5006684;28;20054;-38
2022/07/27 10:05:06;;;;;;;2.38;0.30;;;27.20;62.00;;;;;;5006458;28;20038;-42
2022/07/27 10:07:32;;;;;;;4.80;0.30;;;26.90;61.30;;;;;;5005388;28;20092;-42
2022/07/27 10:10:00;;;;;;;2.25;0.20;;;26.60;60.50;;;;;;5006660;28;20068;-42
2022/07/27 10:12:28;;;;;;;3.63;0.20;;;26.30;60.70;;;;;;5006078;28;20072;-38
2022/07/27 10:14:54;;;;;;;2.10;0.30;;;26.00;60.40;;;;;;5007110;28;20100;-39
2022/07/27 10:17:20;;;;;;;1.98;0.30;;;25.80;60.30;;;;;;5005937;28;20878;-40
2022/07/27 10:19:49;;;;;;;2.42;0.25;;;25.90;59.90;;;;;;5007204;28;20120;-43
2022/07/27 10:22:15;;;;;;;4.25;0.68;;;25.70;59.90;;;;;;5006369;28;20046;-45
2022/07/27 10:24:42;;;;;;;3.45;0.30;;;25.70;59.30;;;;;;5006373;28;20081;-43
2022/07/27 10:27:27;;;;;;;4.53;0.35;;;26.20;59.20;;;;;;5006347;28;20282;-45
2022/07/27 10:29:54;;;;;;;2.67;0.30;;;26.70;59.40;;;;;;5006806;28;20499;-45
2022/07/27 10:32:29;;;;;;;1.58;0.20;;;27.00;58.50;;;;;;5006514;28;20077;-45
2022/07/27 10:34:56;;;;;;;1.10;0.20;;;27.20;57.90;;;;;;5007280;28;20443;-42
2022/07/27 10:37:30;;;;;;;2.38;0.28;;;27.30;57.60;;;;;;5006782;28;20038;-40
2022/07/27 10:42:48;;;;;;;2.63;0.50;;;27.80;57.00;;;;;;5007247;28;20077;-42
2022/07/27 10:45:18;;;;;;;3.75;0.32;;;27.90;56.80;;;;;;5006737;28;20369;-42
2022/07/27 10:47:49;;;;;;;2.92;0.20;;;28.00;56.90;;;;;;5006307;28;20069;-45
2022/07/27 10:50:15;;;;;;;1.02;0.20;;;27.90;57.00;;;;;;5006102;28;20060;-41
2022/07/27 10:52:41;;;;;;;2.78;0.13;;;27.70;56.80;;;;;;5006635;28;20049;-39
2022/07/27 10:55:07;;;;;;;1.35;0.15;;;27.70;55.70;;;;;;5005970;28;20543;-39
2022/07/27 10:57:35;;;;;;;2.42;0.20;;;27.60;55.00;;;;;;5006878;28;20099;-38
2022/07/27 11:00:07;;;;;;;2.13;0.20;;;27.40;55.80;;;;;;5007170;28;20403;-39
2022/07/27 11:02:41;;;;;;;2.05;0.30;;;27.20;55.70;;;;;;5006387;28;20535;-44
2022/07/27 11:05:10;;;;;;;2.90;0.35;;;26.90;54.80;;;;;;5006649;28;20052;-39
2022/07/27 11:07:35;;;;;;;1.13;0.10;;;26.70;55.00;;;;;;5005783;28;20242;-41
2022/07/27 11:10:02;;;;;;;1.90;0.20;;;26.60;55.10;;;;;;5005931;28;20112;-39
2022/07/27 11:12:28;;;;;;;2.72;0.30;;;26.70;55.20;;;;;;5005944;28;20136;-39
2022/07/27 11:14:56;;;;;;;3.28;0.20;;;26.80;55.10;;;;;;5006384;28;20472;-39
2022/07/27 11:17:27;;;;;;;2.00;0.20;;;26.60;55.20;;;;;;5005345;28;20119;-36
2022/07/27 11:20:00;;;;;;;2.42;0.15;;;26.40;55.00;;;;;;5005729;28;20287;-36
2022/07/27 11:22:39;;;;;;;1.33;0.10;;;25.90;55.20;;;;;;5005465;28;20408;-38
2022/07/27 11:25:06;;;;;;;3.03;0.30;;;25.50;56.30;;;;;;5005495;28;20073;-38
2022/07/27 11:27:44;;;;;;;1.90;0.20;;;25.20;57.50;;;;;;5006191;28;20099;-49
2022/07/27 11:30:24;;;;;;;1.75;0.30;;;24.90;57.80;;;;;;5006093;28;20053;-50
2022/07/27 11:32:49;;;;;;;2.45;0.20;;;24.70;58.60;;;;;;5005831;28;20116;-56
2022/07/27 11:35:16;;;;;;;3.60;0.20;;;24.60;59.20;;;;;;5006000;28;20088;-46
2022/07/27 11:38:05;;;;;;;2.60;0.20;;;24.80;59.40;;;;;;5005375;28;20046;-56
2022/07/27 11:40:48;;;;;;;3.08;0.20;;;24.80;58.80;;;;;;5004393;28;20050;-56
2022/07/27 11:43:32;;;;;;;1.27;0.10;;;24.90;57.80;;;;;;5004981;28;20085;-50
2022/07/27 11:46:14;;;;;;;2.47;0.20;;;24.70;57.50;;;;;;5003997;28;20395;-57
2022/07/27 11:48:52;;;;;;;1.70;0.15;;;24.70;58.40;;;;;;5005957;28;20112;-56
2022/07/27 11:51:19;;;;;;;2.67;0.30;;;24.60;58.90;;;;;;5005104;28;20052;-55
2022/07/27 11:53:45;;;;;;;1.02;0.20;;;24.70;59.20;;;;;;5005116;28;20091;-55
2022/07/27 11:56:11;;;;;;;3.58;0.17;;;24.90;58.60;;;;;;5006114;28;20038;-48
2022/07/27 11:59:09;;;;;;;1.70;0.20;;;25.10;57.70;;;;;;5005954;28;20038;-53
2022/07/27 12:01:36;;;;;;;2.30;0.20;;;25.20;56.70;;;;;;5004939;28;20077;-38
2022/07/27 12:04:17;;;;;;;2.78;0.30;;;25.20;57.20;;;;;;5009173;28;20042;-37
2022/07/27 12:06:46;;;;;;;0.95;0.10;;;25.20;58.00;;;;;;5009296;28;20373;-38
2022/07/27 12:09:16;;;;;;;4.00;0.17;;;25.20;57.70;;;;;;5008608;28;20038;-38
2022/07/27 12:11:49;;;;;;;2.58;0.10;;;25.30;57.60;;;;;;5009014;28;20129;-38
2022/07/27 12:14:16;;;;;;;3.05;0.30;;;25.40;57.10;;;;;;5009220;28;20049;-38
2022/07/27 12:16:42;;;;;;;1.05;0.10;;;25.40;57.60;;;;;;5008864;28;20045;-38
2022/07/27 12:19:08;;;;;;;2.38;0.10;;;25.40;58.40;;;;;;5008629;28;20125;-40
2022/07/27 12:21:34;;;;;;;0.60;0.20;;;25.30;58.00;;;;;;5011155;28;20038;-41
2022/07/27 12:24:00;;;;;;;2.35;0.28;;;25.00;57.20;;;;;;5011956;28;20054;-41
2022/07/27 12:26:26;;;;;;;2.25;0.50;;;24.90;57.30;;;;;;5010797;28;20222;-41
2022/07/27 12:29:05;;;;;;;6.70;0.30;;;24.60;57.20;;;;;;5011388;28;20045;-40
2022/07/27 12:31:32;;;;;;;4.10;0.20;;;24.40;57.70;;;;;;5011464;28;20084;-41
2022/07/27 12:33:58;;;;;;;2.50;0.10;;;24.20;58.50;;;;;;5011679;28;20609;-39
2022/07/27 12:36:26;;;;;;;2.90;0.50;;;24.10;58.40;;;;;;5011431;28;20045;-41
2022/07/27 12:38:52;;;;;;;3.85;0.20;;;24.10;58.80;;;;;;5011293;28;20042;-42
2022/07/27 12:41:25;;;;;;;2.67;0.22;;;24.10;59.20;;;;;;5011579;28;20081;-40
2022/07/27 12:44:03;;;;;;;2.70;0.20;;;24.10;58.70;;;;;;5011571;28;20134;-41
2022/07/27 12:46:29;;;;;;;3.83;0.10;;;24.20;58.50;;;;;;5011303;28;20050;-40
2022/07/27 12:48:55;;;;;;;1.85;0.20;;;24.30;58.60;;;;;;5010883;28;20496;-39
2022/07/27 12:51:22;;;;;;;1.50;0.40;;;24.30;58.50;;;;;;5010730;28;20052;-40
2022/07/27 12:53:48;;;;;;;3.75;0.13;;;24.30;58.50;;;;;;5010961;28;20103;-41